Whitehorse, Yukon Territory

11:24 AM PDT on September 23, 2014 (GMT -0700)
Whitehorse International | Change Station
CLOSE
Current Station
Airport
Location: Whitehorse,
Elevation: 2316 ft
Nearby Weather Stations

Elev 2316 ft 60.71 °N, 135.07 °W | Updated 24 minutes ago

Mostly Cloudy
Mostly Cloudy
39 °F
Feels Like 37 °F
N
4
Wind Variable Wind from SE

Today is forecast to be nearly the same temperature as yesterday.

Today
High -- | Low -- °F
--% Chance of Precip.
Yesterday
High -- | Low -- °F
Precip. -- in
7:47 AM 7:56 PM
Waning Crescent, 0% visible
Pressure 29.97 in
Visibility 40.0 miles
Clouds Few 4000 ft
Mostly Cloudy 6000 ft
Windchill 37 °F
Dew Point 32 °F
Humidity 75%
Rainfall 0.00 in
Snow Depth Not available.
UV 1 out of 12
Pollen Not available.
Air Quality Not available.
Flu Activity Not available.
METAR CYXY 231800Z 14003KT 40SM FEW040 BKN060 04/00 A2988 RMK CU1SC6 SLP149

More Conditions Fewer Conditions

Pressure 29.97 in
Visibility 40.0 miles
Clouds Few 4000 ft
Mostly Cloudy 6000 ft
Windchill 37 °F
Dew Point 32 °F
Humidity 75%
Rainfall 0.00 in
Snow Depth Not available.
UV 1 out of 12
Pollen Not available.
Air Quality Not available.
Flu Activity Not available.
METAR CYXY 231800Z 14003KT 40SM FEW040 BKN060 04/00 A2988 RMK CU1SC6 SLP149

More Conditions Fewer Conditions

10-Day Weather Forecast

Almanac

Astronomy

Sep. 23, 2014 Rise Set
Actual Time 7:47 AM PDT 7:56 PM PDT
Civil Twilight 7:04 AM PDT 8:38 PM PDT
Nautical Twilight 6:13 AM PDT 9:29 PM PDT
Astronomical Twilight 5:17 AM PDT 10:25 PM PDT
Moon 7:18 AM PDT 7:32 PM PDT
Length of Visible Light 13h 34m
Length of Day
12h 09m
Tomorrow will be 5m 33s shorter.
Waning Crescent, 0% of the Moon is Illuminated
Today
Waning Crescent
Sep 24
New
Oct 1
First Quarter
Oct 8
Full
Oct 15
Last Quarter

Today's Extremes

Country Highs Country Lows

Community

WunderPhotos

Upload Photos

1,755,771 photos uploaded!

Nearby

Snow Depth

Not available.

Earthquake Activity

City Distance Mag. Time & Date
No recent earthquake activity has been reported nearby.
Minimum magnitude displayed is 2.5.

Coastal Water Temperatures

Place Temperature
No Stations Reporting

Nearby Weather Stations